createdAt,value
2022-12-31T00:02:05.618Z,100212.03
2022-12-31T00:07:27.508Z,100212.88
2022-12-31T00:12:49.269Z,100209.56
2022-12-31T00:18:11.699Z,100205.66
2022-12-31T00:23:33.610Z,100198.19
2022-12-31T00:28:57.638Z,100192.94
2022-12-31T00:34:19.356Z,100168.25
2022-12-31T00:39:41.101Z,100165.50
2022-12-31T00:45:02.847Z,100150.81
2022-12-31T00:50:24.569Z,100134.47
2022-12-31T00:55:46.541Z,100145.81
2022-12-31T01:01:13.720Z,100137.22
2022-12-31T01:06:36.055Z,100137.22
2022-12-31T01:11:57.883Z,100150.50
2022-12-31T01:17:19.627Z,100172.66
2022-12-31T01:22:41.379Z,100239.09
2022-12-31T01:28:04.359Z,100252.38
2022-12-31T01:33:26.081Z,100246.00
2022-12-31T01:38:47.830Z,100231.31
2022-12-31T01:44:12.390Z,100248.75
2022-12-31T01:49:43.082Z,100266.22
2022-12-31T01:55:29.237Z,100267.31
2022-12-31T02:00:53.518Z,100285.84
2022-12-31T02:06:21.201Z,100287.78
2022-12-31T02:11:43.121Z,100281.41
2022-12-31T02:17:38.963Z,100290.56
2022-12-31T02:23:34.431Z,100274.19
2022-12-31T02:29:32.837Z,100296.59
2022-12-31T02:35:03.448Z,100284.94
2022-12-31T02:40:25.813Z,100284.13
2022-12-31T02:46:13.806Z,100270.00
2022-12-31T02:51:50.885Z,100278.59
2022-12-31T02:57:15.575Z,100265.00
2022-12-31T03:02:40.876Z,100251.16
2022-12-31T03:08:02.645Z,100259.44
2022-12-31T03:13:24.993Z,100252.25
2022-12-31T03:19:05.371Z,100225.41
2022-12-31T03:24:45.751Z,100227.59
2022-12-31T03:30:08.249Z,100205.47
2022-12-31T03:35:32.930Z,100210.16
2022-12-31T03:40:54.661Z,100209.31
2022-12-31T03:46:16.417Z,100210.16
2022-12-31T03:51:38.243Z,100214.84
2022-12-31T03:57:00.487Z,100212.94
2022-12-31T04:02:28.590Z,100212.09
2022-12-31T04:07:52.356Z,100215.69
2022-12-31T04:13:16.929Z,100229.53
2022-12-31T04:18:38.989Z,100228.69
2022-12-31T04:24:01.981Z,100229.53
2022-12-31T04:29:23.938Z,100230.63
2022-12-31T04:34:45.647Z,100218.47
2022-12-31T04:40:08.162Z,100248.06
2022-12-31T04:45:29.902Z,100216.53
2022-12-31T04:50:51.751Z,100265.53
2022-12-31T04:56:13.898Z,100264.69
2022-12-31T05:01:36.877Z,100279.59
2022-12-31T05:06:59.146Z,100283.22
2022-12-31T05:12:20.955Z,100267.72
2022-12-31T05:17:42.711Z,100264.94
2022-12-31T05:23:04.657Z,100263.00
2022-12-31T05:28:26.748Z,100275.44
2022-12-31T05:33:48.641Z,100277.09
2022-12-31T05:39:10.412Z,100284.31
2022-12-31T05:44:32.301Z,100313.09
2022-12-31T05:49:54.075Z,100300.34
2022-12-31T05:55:15.923Z,100303.13
2022-12-31T06:00:37.629Z,100318.91
2022-12-31T06:06:01.365Z,100332.72
2022-12-31T06:11:23.601Z,100337.41
2022-12-31T06:16:45.349Z,100335.50
2022-12-31T06:22:07.183Z,100338.50
2022-12-31T06:27:29.110Z,100325.53
2022-12-31T06:32:51.003Z,100338.50
2022-12-31T06:38:12.736Z,100349.34
2022-12-31T06:43:35.521Z,100367.41
2022-12-31T06:48:57.317Z,100352.47
2022-12-31T06:54:19.067Z,100358.97
2022-12-31T06:59:41.152Z,100365.16
2022-12-31T07:05:08.202Z,100366.88
2022-12-31T07:10:43.079Z,100382.63
2022-12-31T07:16:30.924Z,100386.84
2022-12-31T07:21:54.803Z,100377.16
2022-12-31T07:27:42.089Z,100385.75
2022-12-31T07:33:44.636Z,100379.03
2022-12-31T07:39:11.894Z,100399.50
2022-12-31T07:44:57.719Z,100389.44
2022-12-31T07:50:19.971Z,100388.78
2022-12-31T07:55:41.707Z,100436.44
2022-12-31T08:01:04.032Z,100423.84
2022-12-31T08:06:44.826Z,100454.03
2022-12-31T08:12:08.704Z,100455.84
2022-12-31T08:17:30.570Z,100448.06
2022-12-31T08:23:33.573Z,100465.53
2022-12-31T08:29:13.033Z,100481.06
2022-12-31T08:34:43.894Z,100486.72
2022-12-31T08:40:59.801Z,100501.31
2022-12-31T08:46:29.458Z,100494.78
2022-12-31T08:51:51.477Z,100497.63
2022-12-31T08:57:44.008Z,100487.56
2022-12-31T09:03:20.088Z,100523.25
2022-12-31T09:09:00.225Z,100529.81
2022-12-31T09:14:41.107Z,100539.38
2022-12-31T09:20:03.299Z,100550.84
2022-12-31T09:25:26.300Z,100564.56
2022-12-31T09:31:02.604Z,100562.69
2022-12-31T09:36:36.610Z,100548.00
2022-12-31T09:42:16.780Z,100569.72
2022-12-31T09:47:59.896Z,100591.69
2022-12-31T09:53:36.423Z,100604.16
2022-12-31T09:59:37.451Z,100589.09
2022-12-31T10:06:00.985Z,100606.81
2022-12-31T10:11:47.365Z,100611.72
2022-12-31T10:17:54.226Z,100610.22
2022-12-31T10:23:50.449Z,100600.13
2022-12-31T10:29:36.808Z,100611.44
2022-12-31T10:35:31.339Z,100628.78
2022-12-31T10:40:56.048Z,100622.28
2022-12-31T10:46:39.569Z,100617.81
2022-12-31T10:52:48.927Z,100622.97
2022-12-31T10:58:38.046Z,100618.47
2022-12-31T11:04:14.968Z,100643.66
2022-12-31T11:09:51.570Z,100624.16
2022-12-31T11:15:39.458Z,100639.63
2022-12-31T11:21:28.310Z,100643.19
2022-12-31T11:27:07.107Z,100646.75
2022-12-31T11:32:56.529Z,100650.09
2022-12-31T11:38:29.191Z,100641.78
2022-12-31T11:44:01.220Z,100654.47
2022-12-31T11:49:50.618Z,100660.03
2022-12-31T11:55:26.875Z,100650.09
2022-12-31T12:01:14.111Z,100645.19
2022-12-31T12:06:35.854Z,100655.78
2022-12-31T12:12:03.126Z,100634.16
2022-12-31T12:17:32.652Z,100636.66
2022-12-31T12:22:56.503Z,100641.97
2022-12-31T12:28:18.512Z,100631.72
2022-12-31T12:33:46.477Z,100619.78
2022-12-31T12:39:08.389Z,100633.97
2022-12-31T12:44:30.843Z,100631.50
2022-12-31T12:49:54.502Z,100616.53
2022-12-31T12:55:23.177Z,100622.41
2022-12-31T13:00:47.639Z,100617.69
2022-12-31T13:06:50.953Z,100624.34
2022-12-31T13:12:27.889Z,100622.00
2022-12-31T13:18:02.813Z,100615.63
2022-12-31T13:23:39.981Z,100615.00
2022-12-31T13:29:03.864Z,100627.72
2022-12-31T13:34:33.846Z,100629.09
2022-12-31T13:40:03.098Z,100622.38
2022-12-31T13:45:34.885Z,100620.09
2022-12-31T13:51:23.232Z,100623.97
2022-12-31T13:56:47.325Z,100626.50
2022-12-31T14:02:39.132Z,100615.44
2022-12-31T14:08:03.073Z,100615.78
2022-12-31T14:13:43.323Z,100622.47
2022-12-31T14:19:18.829Z,100623.38
2022-12-31T14:24:46.608Z,100641.78
2022-12-31T14:30:19.778Z,100628.25
2022-12-31T14:35:52.732Z,100666.16
2022-12-31T14:41:37.022Z,100644.63
2022-12-31T14:47:07.663Z,100638.13
2022-12-31T14:52:49.266Z,100652.69
2022-12-31T14:58:28.233Z,100640.00
2022-12-31T15:03:50.797Z,100635.63
2022-12-31T15:09:20.786Z,100628.47
2022-12-31T15:15:08.725Z,100631.38
2022-12-31T15:20:59.485Z,100627.13
2022-12-31T15:26:24.690Z,100628.50
2022-12-31T15:31:48.062Z,100638.25
2022-12-31T15:38:00.725Z,100638.00
2022-12-31T15:43:25.136Z,100659.38
2022-12-31T15:48:55.439Z,100642.72
2022-12-31T15:54:50.665Z,100640.78
2022-12-31T16:00:20.967Z,100635.75
2022-12-31T16:05:42.666Z,100625.69
2022-12-31T16:11:06.056Z,100616.47
2022-12-31T16:16:32.637Z,100622.53
2022-12-31T16:22:00.835Z,100611.06
2022-12-31T16:27:24.571Z,100605.16
2022-12-31T16:32:48.717Z,100594.56
2022-12-31T16:38:18.082Z,100601.16
2022-12-31T16:43:41.854Z,100597.78
2022-12-31T16:49:15.873Z,100593.25
2022-12-31T16:54:39.836Z,100598.47
2022-12-31T17:00:06.466Z,100604.00
2022-12-31T17:05:28.871Z,100622.00
2022-12-31T17:10:51.064Z,100606.47
2022-12-31T17:16:18.074Z,100590.91
2022-12-31T17:21:47.597Z,100588.06
2022-12-31T17:27:10.021Z,100580.22
2022-12-31T17:32:37.725Z,100593.63
2022-12-31T17:38:17.975Z,100595.47
2022-12-31T17:43:40.540Z,100589.56
2022-12-31T17:49:03.176Z,100589.25
2022-12-31T17:54:24.904Z,100591.06
2022-12-31T17:59:46.648Z,100586.69
2022-12-31T18:05:20.735Z,100592.34
2022-12-31T18:10:44.539Z,100581.78
2022-12-31T18:16:06.723Z,100592.59
2022-12-31T18:21:32.805Z,100594.50
2022-12-31T18:26:55.986Z,100596.16
2022-12-31T18:32:24.509Z,100604.75
2022-12-31T18:37:46.650Z,100607.75
2022-12-31T18:43:17.489Z,100625.50
2022-12-31T18:48:41.558Z,100624.00
2022-12-31T18:54:04.911Z,100626.47
2022-12-31T18:59:26.721Z,100624.47
2022-12-31T19:04:48.712Z,100618.16
2022-12-31T19:10:14.279Z,100632.13
2022-12-31T19:15:43.477Z,100636.69
2022-12-31T19:21:05.468Z,100651.50
2022-12-31T19:26:27.284Z,100682.44
2022-12-31T19:31:49.777Z,100678.66
2022-12-31T19:37:15.535Z,100680.41
2022-12-31T19:42:37.348Z,100699.91
2022-12-31T19:47:59.067Z,100686.56
2022-12-31T19:53:24.192Z,100694.66
2022-12-31T19:58:46.432Z,100707.78
2022-12-31T20:04:08.195Z,100723.97
2022-12-31T20:09:29.917Z,100705.03
2022-12-31T20:14:51.684Z,100712.28
2022-12-31T20:20:13.537Z,100710.59
2022-12-31T20:25:35.263Z,100711.19
2022-12-31T20:30:57.218Z,100708.97
2022-12-31T20:36:19.021Z,100718.72
2022-12-31T20:41:40.739Z,100713.97
2022-12-31T20:47:02.590Z,100716.19
2022-12-31T20:52:24.347Z,100719.81
2022-12-31T20:57:46.083Z,100712.03
2022-12-31T21:03:23.799Z,100706.72
2022-12-31T21:08:49.674Z,100717.88
2022-12-31T21:14:11.482Z,100705.88
2022-12-31T21:19:33.212Z,100706.44
2022-12-31T21:24:55.001Z,100719.00
2022-12-31T21:30:18.799Z,100717.84
2022-12-31T21:35:45.672Z,100723.97
2022-12-31T21:41:33.284Z,100733.38
2022-12-31T21:47:41.054Z,100727.19
2022-12-31T21:53:02.648Z,100729.09
2022-12-31T21:58:26.498Z,100707.56
2022-12-31T22:03:49.277Z,100729.72
2022-12-31T22:09:11.059Z,100722.13
2022-12-31T22:14:32.774Z,100715.72
2022-12-31T22:20:17.566Z,100747.97
2022-12-31T22:25:37.979Z,100729.84
2022-12-31T22:31:01.040Z,100751.56
2022-12-31T22:36:24.269Z,100751.28
2022-12-31T22:41:46.670Z,100743.50
2022-12-31T22:47:08.801Z,100760.19
2022-12-31T22:52:31.383Z,100762.13
2022-12-31T22:57:53.105Z,100784.09
2022-12-31T23:03:15.351Z,100781.59
2022-12-31T23:08:37.149Z,100764.84
2022-12-31T23:14:17.814Z,100775.94
2022-12-31T23:19:58.412Z,100787.06
2022-12-31T23:25:20.465Z,100773.38
2022-12-31T23:30:43.374Z,100790.53
2022-12-31T23:36:07.069Z,100789.94
2022-12-31T23:41:28.839Z,100787.06
2022-12-31T23:46:50.914Z,100781.47
2022-12-31T23:52:12.667Z,100792.53
2022-12-31T23:57:34.406Z,100789.72
